sensor_id;sensor_type;location;lat;lon;timestamp;P1;durP1;ratioP1;P2;durP2;ratioP2
146;SDS011;45999;48.808;9.182;2023-11-19T00:01:23;2.70;;;1.90;;
146;SDS011;45999;48.808;9.182;2023-11-19T00:03:50;1.83;;;1.67;;
146;SDS011;45999;48.808;9.182;2023-11-19T00:06:16;2.00;;;1.80;;
146;SDS011;45999;48.808;9.182;2023-11-19T00:08:43;3.37;;;1.80;;
146;SDS011;45999;48.808;9.182;2023-11-19T00:11:09;1.83;;;1.73;;
146;SDS011;45999;48.808;9.182;2023-11-19T00:13:36;2.10;;;1.87;;
146;SDS011;45999;48.808;9.182;2023-11-19T00:16:02;2.10;;;1.80;;
146;SDS011;45999;48.808;9.182;2023-11-19T00:18:29;2.40;;;1.90;;
146;SDS011;45999;48.808;9.182;2023-11-19T00:20:55;2.33;;;2.13;;
146;SDS011;45999;48.808;9.182;2023-11-19T00:23:22;2.60;;;2.30;;
146;SDS011;45999;48.808;9.182;2023-11-19T00:25:48;3.07;;;1.93;;
146;SDS011;45999;48.808;9.182;2023-11-19T00:28:15;2.20;;;2.00;;
146;SDS011;45999;48.808;9.182;2023-11-19T00:30:41;2.47;;;2.23;;
146;SDS011;45999;48.808;9.182;2023-11-19T00:33:08;2.43;;;2.23;;
146;SDS011;45999;48.808;9.182;2023-11-19T00:35:34;2.43;;;2.23;;
146;SDS011;45999;48.808;9.182;2023-11-19T00:38:00;4.43;;;2.70;;
146;SDS011;45999;48.808;9.182;2023-11-19T00:40:27;2.50;;;2.20;;
146;SDS011;45999;48.808;9.182;2023-11-19T00:42:54;2.60;;;2.40;;
146;SDS011;45999;48.808;9.182;2023-11-19T00:45:20;4.43;;;2.13;;
146;SDS011;45999;48.808;9.182;2023-11-19T00:47:47;3.23;;;2.17;;
146;SDS011;45999;48.808;9.182;2023-11-19T00:50:13;2.70;;;2.37;;
146;SDS011;45999;48.808;9.182;2023-11-19T00:52:39;2.97;;;2.03;;
146;SDS011;45999;48.808;9.182;2023-11-19T00:55:06;2.50;;;2.30;;
146;SDS011;45999;48.808;9.182;2023-11-19T00:57:33;2.20;;;2.00;;
146;SDS011;45999;48.808;9.182;2023-11-19T01:00:00;4.50;;;2.57;;
146;SDS011;45999;48.808;9.182;2023-11-19T01:02:27;3.50;;;2.40;;
146;SDS011;45999;48.808;9.182;2023-11-19T01:04:54;2.67;;;2.47;;
146;SDS011;45999;48.808;9.182;2023-11-19T01:07:20;2.67;;;2.30;;
146;SDS011;45999;48.808;9.182;2023-11-19T01:09:49;3.33;;;2.53;;
146;SDS011;45999;48.808;9.182;2023-11-19T01:12:15;3.77;;;2.60;;
146;SDS011;45999;48.808;9.182;2023-11-19T01:14:42;2.90;;;2.30;;
146;SDS011;45999;48.808;9.182;2023-11-19T01:17:08;3.50;;;2.37;;
146;SDS011;45999;48.808;9.182;2023-11-19T01:19:34;2.40;;;2.20;;
146;SDS011;45999;48.808;9.182;2023-11-19T01:22:01;3.07;;;2.27;;
146;SDS011;45999;48.808;9.182;2023-11-19T01:24:27;2.93;;;2.10;;
146;SDS011;45999;48.808;9.182;2023-11-19T01:26:56;2.40;;;2.00;;
146;SDS011;45999;48.808;9.182;2023-11-19T01:29:22;2.40;;;2.20;;
146;SDS011;45999;48.808;9.182;2023-11-19T01:31:49;5.50;;;2.30;;
146;SDS011;45999;48.808;9.182;2023-11-19T01:34:16;2.23;;;2.03;;
146;SDS011;45999;48.808;9.182;2023-11-19T01:36:42;3.13;;;2.40;;
146;SDS011;45999;48.808;9.182;2023-11-19T01:39:09;2.67;;;2.17;;
146;SDS011;45999;48.808;9.182;2023-11-19T01:41:35;3.27;;;2.10;;
146;SDS011;45999;48.808;9.182;2023-11-19T01:44:04;2.30;;;2.10;;
146;SDS011;45999;48.808;9.182;2023-11-19T01:46:32;3.83;;;2.10;;
146;SDS011;45999;48.808;9.182;2023-11-19T01:49:00;4.30;;;2.37;;
146;SDS011;45999;48.808;9.182;2023-11-19T01:51:28;2.80;;;2.30;;
146;SDS011;45999;48.808;9.182;2023-11-19T01:53:55;2.30;;;2.10;;
146;SDS011;45999;48.808;9.182;2023-11-19T01:56:23;2.43;;;2.23;;
146;SDS011;45999;48.808;9.182;2023-11-19T01:58:50;3.10;;;2.30;;
146;SDS011;45999;48.808;9.182;2023-11-19T02:01:18;3.30;;;2.30;;
146;SDS011;45999;48.808;9.182;2023-11-19T02:03:44;2.50;;;2.30;;
146;SDS011;45999;48.808;9.182;2023-11-19T02:06:12;2.40;;;2.20;;
146;SDS011;45999;48.808;9.182;2023-11-19T02:08:38;4.60;;;2.10;;
146;SDS011;45999;48.808;9.182;2023-11-19T02:11:05;3.77;;;2.17;;
146;SDS011;45999;48.808;9.182;2023-11-19T02:13:33;2.50;;;2.20;;
146;SDS011;45999;48.808;9.182;2023-11-19T02:16:01;2.90;;;2.20;;
146;SDS011;45999;48.808;9.182;2023-11-19T02:18:28;3.33;;;2.20;;
146;SDS011;45999;48.808;9.182;2023-11-19T02:20:55;4.10;;;2.40;;
146;SDS011;45999;48.808;9.182;2023-11-19T02:23:22;3.83;;;2.67;;
146;SDS011;45999;48.808;9.182;2023-11-19T02:25:57;3.30;;;2.00;;
146;SDS011;45999;48.808;9.182;2023-11-19T02:28:30;3.10;;;2.17;;
146;SDS011;45999;48.808;9.182;2023-11-19T02:30:58;3.33;;;2.10;;
146;SDS011;45999;48.808;9.182;2023-11-19T02:33:24;4.60;;;2.50;;
146;SDS011;45999;48.808;9.182;2023-11-19T02:35:51;4.27;;;2.30;;
146;SDS011;45999;48.808;9.182;2023-11-19T02:38:17;2.80;;;2.40;;
146;SDS011;45999;48.808;9.182;2023-11-19T02:40:44;2.73;;;2.00;;
146;SDS011;45999;48.808;9.182;2023-11-19T02:43:10;1.40;;;1.30;;
146;SDS011;45999;48.808;9.182;2023-11-19T02:45:36;3.93;;;2.20;;
146;SDS011;45999;48.808;9.182;2023-11-19T02:48:03;2.00;;;1.80;;
146;SDS011;45999;48.808;9.182;2023-11-19T02:50:31;1.93;;;1.73;;
146;SDS011;45999;48.808;9.182;2023-11-19T02:52:58;2.50;;;2.10;;
146;SDS011;45999;48.808;9.182;2023-11-19T02:55:24;4.00;;;1.80;;
146;SDS011;45999;48.808;9.182;2023-11-19T02:57:53;2.37;;;2.00;;
146;SDS011;45999;48.808;9.182;2023-11-19T03:00:21;3.37;;;1.80;;
146;SDS011;45999;48.808;9.182;2023-11-19T03:02:52;1.60;;;1.50;;
146;SDS011;45999;48.808;9.182;2023-11-19T03:05:25;1.67;;;1.30;;
146;SDS011;45999;48.808;9.182;2023-11-19T03:07:54;1.63;;;1.53;;
146;SDS011;45999;48.808;9.182;2023-11-19T03:10:20;2.20;;;1.13;;
146;SDS011;45999;48.808;9.182;2023-11-19T03:12:47;2.03;;;1.40;;
146;SDS011;45999;48.808;9.182;2023-11-19T03:15:13;7.47;;;2.90;;
146;SDS011;45999;48.808;9.182;2023-11-19T03:17:40;3.53;;;2.60;;
146;SDS011;45999;48.808;9.182;2023-11-19T03:20:08;2.70;;;2.30;;
146;SDS011;45999;48.808;9.182;2023-11-19T03:22:37;5.50;;;2.63;;
146;SDS011;45999;48.808;9.182;2023-11-19T03:25:03;7.70;;;3.00;;
146;SDS011;45999;48.808;9.182;2023-11-19T03:27:33;5.17;;;3.40;;
146;SDS011;45999;48.808;9.182;2023-11-19T03:30:00;3.80;;;2.63;;
146;SDS011;45999;48.808;9.182;2023-11-19T03:32:27;3.00;;;2.50;;
146;SDS011;45999;48.808;9.182;2023-11-19T03:34:53;1.87;;;1.57;;
146;SDS011;45999;48.808;9.182;2023-11-19T03:37:20;2.10;;;1.90;;
146;SDS011;45999;48.808;9.182;2023-11-19T03:39:46;3.80;;;3.10;;
146;SDS011;45999;48.808;9.182;2023-11-19T03:42:13;4.73;;;3.33;;
146;SDS011;45999;48.808;9.182;2023-11-19T03:44:39;4.17;;;3.77;;
146;SDS011;45999;48.808;9.182;2023-11-19T03:47:06;5.07;;;4.00;;
146;SDS011;45999;48.808;9.182;2023-11-19T03:49:32;4.10;;;3.50;;
146;SDS011;45999;48.808;9.182;2023-11-19T03:51:59;6.33;;;3.80;;
146;SDS011;45999;48.808;9.182;2023-11-19T03:54:26;6.73;;;3.57;;
146;SDS011;45999;48.808;9.182;2023-11-19T03:56:52;4.80;;;3.30;;
146;SDS011;45999;48.808;9.182;2023-11-19T03:59:19;2.00;;;1.80;;
146;SDS011;45999;48.808;9.182;2023-11-19T04:01:46;1.90;;;1.20;;
146;SDS011;45999;48.808;9.182;2023-11-19T04:04:12;0.90;;;0.90;;
146;SDS011;45999;48.808;9.182;2023-11-19T04:06:39;1.00;;;0.87;;
146;SDS011;45999;48.808;9.182;2023-11-19T04:09:05;0.80;;;0.77;;
146;SDS011;45999;48.808;9.182;2023-11-19T04:11:32;2.20;;;1.00;;
146;SDS011;45999;48.808;9.182;2023-11-19T04:13:58;1.03;;;0.70;;
146;SDS011;45999;48.808;9.182;2023-11-19T04:16:27;0.60;;;0.50;;
146;SDS011;45999;48.808;9.182;2023-11-19T04:18:54;0.80;;;0.50;;
146;SDS011;45999;48.808;9.182;2023-11-19T04:21:20;0.50;;;0.50;;
146;SDS011;45999;48.808;9.182;2023-11-19T04:23:48;1.80;;;0.50;;
146;SDS011;45999;48.808;9.182;2023-11-19T04:26:14;1.23;;;0.50;;
146;SDS011;45999;48.808;9.182;2023-11-19T04:28:41;2.40;;;0.50;;
146;SDS011;45999;48.808;9.182;2023-11-19T04:31:07;0.30;;;0.30;;
146;SDS011;45999;48.808;9.182;2023-11-19T04:33:34;0.30;;;0.23;;
146;SDS011;45999;48.808;9.182;2023-11-19T04:36:00;0.30;;;0.30;;
146;SDS011;45999;48.808;9.182;2023-11-19T04:38:27;1.10;;;0.30;;
146;SDS011;45999;48.808;9.182;2023-11-19T04:40:53;0.73;;;0.43;;
146;SDS011;45999;48.808;9.182;2023-11-19T04:43:22;1.20;;;0.27;;
146;SDS011;45999;48.808;9.182;2023-11-19T04:45:48;1.13;;;0.30;;
146;SDS011;45999;48.808;9.182;2023-11-19T04:48:14;0.23;;;0.23;;
146;SDS011;45999;48.808;9.182;2023-11-19T04:50:41;0.53;;;0.30;;
146;SDS011;45999;48.808;9.182;2023-11-19T04:53:07;0.87;;;0.30;;
146;SDS011;45999;48.808;9.182;2023-11-19T04:55:33;0.20;;;0.20;;
146;SDS011;45999;48.808;9.182;2023-11-19T04:58:00;0.27;;;0.27;;
146;SDS011;45999;48.808;9.182;2023-11-19T05:00:26;0.30;;;0.30;;
146;SDS011;45999;48.808;9.182;2023-11-19T05:02:53;0.37;;;0.20;;
146;SDS011;45999;48.808;9.182;2023-11-19T05:05:19;3.20;;;0.30;;
146;SDS011;45999;48.808;9.182;2023-11-19T05:07:45;0.23;;;0.23;;
146;SDS011;45999;48.808;9.182;2023-11-19T05:10:12;0.33;;;0.30;;
146;SDS011;45999;48.808;9.182;2023-11-19T05:12:38;1.13;;;0.30;;
146;SDS011;45999;48.808;9.182;2023-11-19T05:15:06;0.40;;;0.40;;
146;SDS011;45999;48.808;9.182;2023-11-19T05:17:33;0.40;;;0.30;;
146;SDS011;45999;48.808;9.182;2023-11-19T05:19:59;0.20;;;0.20;;
146;SDS011;45999;48.808;9.182;2023-11-19T05:22:26;1.03;;;0.30;;
146;SDS011;45999;48.808;9.182;2023-11-19T05:24:52;0.30;;;0.30;;
146;SDS011;45999;48.808;9.182;2023-11-19T05:27:19;0.30;;;0.30;;
146;SDS011;45999;48.808;9.182;2023-11-19T05:29:45;0.20;;;0.20;;
146;SDS011;45999;48.808;9.182;2023-11-19T05:32:12;0.20;;;0.20;;
146;SDS011;45999;48.808;9.182;2023-11-19T05:34:38;0.27;;;0.27;;
146;SDS011;45999;48.808;9.182;2023-11-19T05:37:04;0.30;;;0.30;;
146;SDS011;45999;48.808;9.182;2023-11-19T05:39:31;0.47;;;0.30;;
146;SDS011;45999;48.808;9.182;2023-11-19T05:41:58;0.20;;;0.20;;
146;SDS011;45999;48.808;9.182;2023-11-19T05:44:24;0.40;;;0.20;;
146;SDS011;45999;48.808;9.182;2023-11-19T05:46:50;0.40;;;0.40;;
146;SDS011;45999;48.808;9.182;2023-11-19T05:49:17;0.20;;;0.20;;
146;SDS011;45999;48.808;9.182;2023-11-19T05:51:43;0.63;;;0.27;;
146;SDS011;45999;48.808;9.182;2023-11-19T05:54:11;0.30;;;0.30;;
146;SDS011;45999;48.808;9.182;2023-11-19T05:56:38;0.30;;;0.30;;
146;SDS011;45999;48.808;9.182;2023-11-19T05:59:05;0.47;;;0.47;;
146;SDS011;45999;48.808;9.182;2023-11-19T06:01:40;0.30;;;0.30;;
146;SDS011;45999;48.808;9.182;2023-11-19T06:04:07;0.77;;;0.30;;
146;SDS011;45999;48.808;9.182;2023-11-19T06:06:34;0.67;;;0.20;;
146;SDS011;45999;48.808;9.182;2023-11-19T06:09:00;0.30;;;0.30;;
146;SDS011;45999;48.808;9.182;2023-11-19T06:11:31;0.30;;;0.30;;
146;SDS011;45999;48.808;9.182;2023-11-19T06:13:59;0.77;;;0.33;;
146;SDS011;45999;48.808;9.182;2023-11-19T06:16:25;1.27;;;0.30;;
146;SDS011;45999;48.808;9.182;2023-11-19T06:18:52;0.33;;;0.23;;
146;SDS011;45999;48.808;9.182;2023-11-19T06:21:18;0.40;;;0.20;;
146;SDS011;45999;48.808;9.182;2023-11-19T06:23:45;0.57;;;0.40;;
146;SDS011;45999;48.808;9.182;2023-11-19T06:26:12;0.57;;;0.30;;
146;SDS011;45999;48.808;9.182;2023-11-19T06:28:39;0.30;;;0.30;;
146;SDS011;45999;48.808;9.182;2023-11-19T06:31:05;0.30;;;0.30;;
146;SDS011;45999;48.808;9.182;2023-11-19T06:33:31;0.30;;;0.30;;
146;SDS011;45999;48.808;9.182;2023-11-19T06:35:59;0.33;;;0.27;;
146;SDS011;45999;48.808;9.182;2023-11-19T06:38:25;0.30;;;0.30;;
146;SDS011;45999;48.808;9.182;2023-11-19T06:40:51;0.40;;;0.40;;
146;SDS011;45999;48.808;9.182;2023-11-19T06:43:18;0.33;;;0.33;;
146;SDS011;45999;48.808;9.182;2023-11-19T06:45:44;0.70;;;0.30;;
146;SDS011;45999;48.808;9.182;2023-11-19T06:48:10;0.30;;;0.30;;
146;SDS011;45999;48.808;9.182;2023-11-19T06:50:37;0.50;;;0.30;;
146;SDS011;45999;48.808;9.182;2023-11-19T06:53:03;0.20;;;0.20;;
146;SDS011;45999;48.808;9.182;2023-11-19T06:55:31;1.17;;;0.30;;
146;SDS011;45999;48.808;9.182;2023-11-19T06:57:59;0.83;;;0.40;;
146;SDS011;45999;48.808;9.182;2023-11-19T07:00:27;0.40;;;0.40;;
146;SDS011;45999;48.808;9.182;2023-11-19T07:02:53;0.50;;;0.40;;
146;SDS011;45999;48.808;9.182;2023-11-19T07:05:20;0.43;;;0.30;;
146;SDS011;45999;48.808;9.182;2023-11-19T07:07:46;0.20;;;0.20;;
146;SDS011;45999;48.808;9.182;2023-11-19T07:10:13;0.43;;;0.30;;
146;SDS011;45999;48.808;9.182;2023-11-19T07:12:40;2.07;;;0.40;;
146;SDS011;45999;48.808;9.182;2023-11-19T07:15:07;0.33;;;0.33;;
146;SDS011;45999;48.808;9.182;2023-11-19T07:17:34;0.43;;;0.40;;
146;SDS011;45999;48.808;9.182;2023-11-19T07:20:01;0.40;;;0.40;;
146;SDS011;45999;48.808;9.182;2023-11-19T07:22:30;0.83;;;0.30;;
146;SDS011;45999;48.808;9.182;2023-11-19T07:24:56;0.37;;;0.37;;
146;SDS011;45999;48.808;9.182;2023-11-19T07:27:23;0.30;;;0.30;;
146;SDS011;45999;48.808;9.182;2023-11-19T07:29:50;3.33;;;0.40;;
146;SDS011;45999;48.808;9.182;2023-11-19T07:32:16;0.50;;;0.50;;
146;SDS011;45999;48.808;9.182;2023-11-19T07:34:43;0.50;;;0.50;;
146;SDS011;45999;48.808;9.182;2023-11-19T07:37:09;0.40;;;0.40;;
146;SDS011;45999;48.808;9.182;2023-11-19T07:39:35;0.30;;;0.30;;
146;SDS011;45999;48.808;9.182;2023-11-19T07:42:05;0.40;;;0.40;;
146;SDS011;45999;48.808;9.182;2023-11-19T07:44:32;0.30;;;0.30;;
146;SDS011;45999;48.808;9.182;2023-11-19T07:46:58;0.73;;;0.40;;
146;SDS011;45999;48.808;9.182;2023-11-19T07:49:25;0.90;;;0.53;;
146;SDS011;45999;48.808;9.182;2023-11-19T07:51:51;1.20;;;0.40;;
146;SDS011;45999;48.808;9.182;2023-11-19T07:54:18;0.40;;;0.40;;
146;SDS011;45999;48.808;9.182;2023-11-19T07:56:46;0.33;;;0.33;;
146;SDS011;45999;48.808;9.182;2023-11-19T07:59:14;1.20;;;0.40;;
146;SDS011;45999;48.808;9.182;2023-11-19T08:01:41;1.77;;;0.50;;
146;SDS011;45999;48.808;9.182;2023-11-19T08:04:07;0.40;;;0.40;;
146;SDS011;45999;48.808;9.182;2023-11-19T08:06:33;0.53;;;0.40;;
146;SDS011;45999;48.808;9.182;2023-11-19T08:09:00;0.50;;;0.50;;
146;SDS011;45999;48.808;9.182;2023-11-19T08:11:26;1.50;;;0.43;;
146;SDS011;45999;48.808;9.182;2023-11-19T08:13:53;0.40;;;0.40;;
146;SDS011;45999;48.808;9.182;2023-11-19T08:16:19;0.93;;;0.30;;
146;SDS011;45999;48.808;9.182;2023-11-19T08:18:45;0.60;;;0.40;;
146;SDS011;45999;48.808;9.182;2023-11-19T08:21:12;1.07;;;0.40;;
146;SDS011;45999;48.808;9.182;2023-11-19T08:23:38;0.40;;;0.40;;
146;SDS011;45999;48.808;9.182;2023-11-19T08:26:05;0.43;;;0.40;;
146;SDS011;45999;48.808;9.182;2023-11-19T08:28:32;0.40;;;0.40;;
146;SDS011;45999;48.808;9.182;2023-11-19T08:30:59;0.40;;;0.40;;
146;SDS011;45999;48.808;9.182;2023-11-19T08:33:26;0.30;;;0.30;;
146;SDS011;45999;48.808;9.182;2023-11-19T08:35:52;1.50;;;0.50;;
146;SDS011;45999;48.808;9.182;2023-11-19T08:38:19;0.60;;;0.40;;
146;SDS011;45999;48.808;9.182;2023-11-19T08:40:45;0.73;;;0.40;;
146;SDS011;45999;48.808;9.182;2023-11-19T08:43:12;0.87;;;0.50;;
146;SDS011;45999;48.808;9.182;2023-11-19T08:45:38;0.47;;;0.30;;
146;SDS011;45999;48.808;9.182;2023-11-19T08:48:04;0.40;;;0.40;;
146;SDS011;45999;48.808;9.182;2023-11-19T08:50:31;1.40;;;0.40;;
146;SDS011;45999;48.808;9.182;2023-11-19T08:52:58;0.47;;;0.47;;
146;SDS011;45999;48.808;9.182;2023-11-19T08:55:24;0.40;;;0.40;;
146;SDS011;45999;48.808;9.182;2023-11-19T08:57:51;0.40;;;0.40;;
146;SDS011;45999;48.808;9.182;2023-11-19T09:00:17;0.40;;;0.40;;
146;SDS011;45999;48.808;9.182;2023-11-19T09:02:44;0.87;;;0.63;;
146;SDS011;45999;48.808;9.182;2023-11-19T09:05:10;3.40;;;0.60;;
146;SDS011;45999;48.808;9.182;2023-11-19T09:07:37;0.50;;;0.50;;
146;SDS011;45999;48.808;9.182;2023-11-19T09:10:04;0.40;;;0.40;;
146;SDS011;45999;48.808;9.182;2023-11-19T09:12:31;0.93;;;0.40;;
146;SDS011;45999;48.808;9.182;2023-11-19T09:14:57;0.50;;;0.50;;
146;SDS011;45999;48.808;9.182;2023-11-19T09:17:23;0.60;;;0.60;;
146;SDS011;45999;48.808;9.182;2023-11-19T09:19:50;0.70;;;0.40;;
146;SDS011;45999;48.808;9.182;2023-11-19T09:22:16;0.40;;;0.40;;
146;SDS011;45999;48.808;9.182;2023-11-19T09:24:42;0.90;;;0.50;;
146;SDS011;45999;48.808;9.182;2023-11-19T09:27:09;0.47;;;0.40;;
146;SDS011;45999;48.808;9.182;2023-11-19T09:29:36;0.63;;;0.40;;
146;SDS011;45999;48.808;9.182;2023-11-19T09:32:03;0.53;;;0.40;;
146;SDS011;45999;48.808;9.182;2023-11-19T09:34:29;0.87;;;0.50;;
146;SDS011;45999;48.808;9.182;2023-11-19T09:36:56;0.77;;;0.57;;
146;SDS011;45999;48.808;9.182;2023-11-19T09:39:23;4.43;;;0.63;;
146;SDS011;45999;48.808;9.182;2023-11-19T09:41:50;1.20;;;0.80;;
146;SDS011;45999;48.808;9.182;2023-11-19T09:44:17;1.77;;;0.60;;
146;SDS011;45999;48.808;9.182;2023-11-19T09:46:44;0.90;;;0.60;;
146;SDS011;45999;48.808;9.182;2023-11-19T09:49:10;0.50;;;0.50;;
146;SDS011;45999;48.808;9.182;2023-11-19T09:51:37;0.50;;;0.50;;
146;SDS011;45999;48.808;9.182;2023-11-19T09:54:04;0.57;;;0.50;;
146;SDS011;45999;48.808;9.182;2023-11-19T09:56:31;0.70;;;0.67;;
146;SDS011;45999;48.808;9.182;2023-11-19T09:59:01;1.17;;;1.07;;
146;SDS011;45999;48.808;9.182;2023-11-19T10:01:28;0.80;;;0.80;;
146;SDS011;45999;48.808;9.182;2023-11-19T10:03:56;1.53;;;0.60;;
146;SDS011;45999;48.808;9.182;2023-11-19T10:06:23;0.50;;;0.50;;
146;SDS011;45999;48.808;9.182;2023-11-19T10:08:51;0.53;;;0.53;;
146;SDS011;45999;48.808;9.182;2023-11-19T10:11:18;0.80;;;0.60;;
146;SDS011;45999;48.808;9.182;2023-11-19T10:13:44;0.50;;;0.50;;
146;SDS011;45999;48.808;9.182;2023-11-19T10:16:12;0.50;;;0.50;;
146;SDS011;45999;48.808;9.182;2023-11-19T10:18:45;0.90;;;0.70;;
146;SDS011;45999;48.808;9.182;2023-11-19T10:21:13;0.63;;;0.57;;
146;SDS011;45999;48.808;9.182;2023-11-19T10:23:52;0.63;;;0.50;;
146;SDS011;45999;48.808;9.182;2023-11-19T10:26:22;1.13;;;0.63;;
146;SDS011;45999;48.808;9.182;2023-11-19T10:28:49;0.60;;;0.60;;
146;SDS011;45999;48.808;9.182;2023-11-19T10:31:16;0.77;;;0.67;;
146;SDS011;45999;48.808;9.182;2023-11-19T10:33:44;0.90;;;0.60;;
146;SDS011;45999;48.808;9.182;2023-11-19T10:36:11;1.73;;;0.60;;
146;SDS011;45999;48.808;9.182;2023-11-19T10:38:39;1.75;;;0.63;;
146;SDS011;45999;48.808;9.182;2023-11-19T10:41:06;0.70;;;0.70;;
146;SDS011;45999;48.808;9.182;2023-11-19T10:43:44;2.87;;;0.80;;
146;SDS011;45999;48.808;9.182;2023-11-19T10:46:11;0.63;;;0.63;;
146;SDS011;45999;48.808;9.182;2023-11-19T10:48:38;0.93;;;0.70;;
146;SDS011;45999;48.808;9.182;2023-11-19T10:51:06;0.50;;;0.50;;
146;SDS011;45999;48.808;9.182;2023-11-19T10:53:33;0.83;;;0.70;;
146;SDS011;45999;48.808;9.182;2023-11-19T10:56:04;1.73;;;0.63;;
146;SDS011;45999;48.808;9.182;2023-11-19T10:58:33;0.73;;;0.60;;
146;SDS011;45999;48.808;9.182;2023-11-19T11:01:03;1.63;;;0.57;;
146;SDS011;45999;48.808;9.182;2023-11-19T11:03:39;1.93;;;0.60;;
146;SDS011;45999;48.808;9.182;2023-11-19T11:06:06;2.07;;;0.60;;
146;SDS011;45999;48.808;9.182;2023-11-19T11:08:34;1.80;;;0.70;;
146;SDS011;45999;48.808;9.182;2023-11-19T11:11:04;1.77;;;0.60;;
146;SDS011;45999;48.808;9.182;2023-11-19T11:13:32;0.73;;;0.60;;
146;SDS011;45999;48.808;9.182;2023-11-19T11:15:59;2.50;;;0.80;;
146;SDS011;45999;48.808;9.182;2023-11-19T11:18:26;0.90;;;0.57;;
146;SDS011;45999;48.808;9.182;2023-11-19T11:20:55;0.73;;;0.60;;
146;SDS011;45999;48.808;9.182;2023-11-19T11:23:33;0.90;;;0.70;;
146;SDS011;45999;48.808;9.182;2023-11-19T11:29:15;3.90;;;0.90;;
146;SDS011;45999;48.808;9.182;2023-11-19T11:39:57;1.90;;;0.90;;
146;SDS011;45999;48.808;9.182;2023-11-19T11:45:07;0.90;;;0.70;;
146;SDS011;45999;48.808;9.182;2023-11-19T11:50:11;1.17;;;0.80;;
146;SDS011;45999;48.808;9.182;2023-11-19T11:55:25;2.23;;;0.80;;
146;SDS011;45999;48.808;9.182;2023-11-19T11:57:52;2.40;;;0.90;;
146;SDS011;45999;48.808;9.182;2023-11-19T12:02:49;1.73;;;0.87;;
146;SDS011;45999;48.808;9.182;2023-11-19T12:05:17;1.03;;;0.70;;
146;SDS011;45999;48.808;9.182;2023-11-19T12:07:54;1.37;;;0.80;;
146;SDS011;45999;48.808;9.182;2023-11-19T12:10:23;1.50;;;0.80;;
146;SDS011;45999;48.808;9.182;2023-11-19T12:12:57;2.57;;;0.70;;
146;SDS011;45999;48.808;9.182;2023-11-19T12:15:24;2.33;;;0.80;;
146;SDS011;45999;48.808;9.182;2023-11-19T12:17:52;2.07;;;0.70;;
146;SDS011;45999;48.808;9.182;2023-11-19T12:20:20;2.00;;;0.83;;
146;SDS011;45999;48.808;9.182;2023-11-19T12:22:48;0.60;;;0.60;;
146;SDS011;45999;48.808;9.182;2023-11-19T12:25:16;1.43;;;0.70;;
146;SDS011;45999;48.808;9.182;2023-11-19T12:27:45;0.77;;;0.70;;
146;SDS011;45999;48.808;9.182;2023-11-19T12:30:22;1.43;;;0.60;;
146;SDS011;45999;48.808;9.182;2023-11-19T12:32:50;0.97;;;0.70;;
146;SDS011;45999;48.808;9.182;2023-11-19T12:35:18;3.90;;;0.80;;
146;SDS011;45999;48.808;9.182;2023-11-19T12:37:46;2.57;;;0.50;;
146;SDS011;45999;48.808;9.182;2023-11-19T12:40:18;1.67;;;0.60;;
146;SDS011;45999;48.808;9.182;2023-11-19T12:42:52;0.87;;;0.60;;
146;SDS011;45999;48.808;9.182;2023-11-19T12:45:19;2.83;;;0.70;;
146;SDS011;45999;48.808;9.182;2023-11-19T12:47:48;0.77;;;0.70;;
146;SDS011;45999;48.808;9.182;2023-11-19T12:50:17;2.20;;;0.60;;
146;SDS011;45999;48.808;9.182;2023-11-19T12:52:56;0.83;;;0.67;;
146;SDS011;45999;48.808;9.182;2023-11-19T12:55:24;1.63;;;0.60;;
146;SDS011;45999;48.808;9.182;2023-11-19T12:57:52;0.70;;;0.70;;
146;SDS011;45999;48.808;9.182;2023-11-19T13:00:20;0.73;;;0.60;;
146;SDS011;45999;48.808;9.182;2023-11-19T13:02:49;0.93;;;0.60;;
146;SDS011;45999;48.808;9.182;2023-11-19T13:08:04;1.67;;;0.73;;
146;SDS011;45999;48.808;9.182;2023-11-19T13:10:34;1.33;;;0.63;;
146;SDS011;45999;48.808;9.182;2023-11-19T13:13:20;2.17;;;0.80;;
146;SDS011;45999;48.808;9.182;2023-11-19T13:15:47;0.90;;;0.70;;
146;SDS011;45999;48.808;9.182;2023-11-19T13:18:15;2.47;;;0.67;;
146;SDS011;45999;48.808;9.182;2023-11-19T13:20:42;1.37;;;0.80;;
146;SDS011;45999;48.808;9.182;2023-11-19T13:23:09;1.13;;;0.70;;
146;SDS011;45999;48.808;9.182;2023-11-19T13:25:36;2.80;;;0.90;;
146;SDS011;45999;48.808;9.182;2023-11-19T13:28:02;2.03;;;0.80;;
146;SDS011;45999;48.808;9.182;2023-11-19T13:30:30;2.67;;;0.80;;
146;SDS011;45999;48.808;9.182;2023-11-19T13:32:57;1.23;;;0.70;;
146;SDS011;45999;48.808;9.182;2023-11-19T13:35:23;2.27;;;1.00;;
146;SDS011;45999;48.808;9.182;2023-11-19T13:37:50;0.97;;;0.70;;
146;SDS011;45999;48.808;9.182;2023-11-19T13:40:17;1.57;;;0.97;;
146;SDS011;45999;48.808;9.182;2023-11-19T13:42:44;2.20;;;0.80;;
146;SDS011;45999;48.808;9.182;2023-11-19T13:45:11;1.80;;;0.77;;
146;SDS011;45999;48.808;9.182;2023-11-19T13:47:42;1.90;;;1.07;;
146;SDS011;45999;48.808;9.182;2023-11-19T13:50:09;0.90;;;0.73;;
146;SDS011;45999;48.808;9.182;2023-11-19T13:52:37;1.03;;;0.80;;
146;SDS011;45999;48.808;9.182;2023-11-19T13:55:05;1.63;;;0.60;;
146;SDS011;45999;48.808;9.182;2023-11-19T13:57:32;1.90;;;0.70;;
146;SDS011;45999;48.808;9.182;2023-11-19T13:59:59;0.93;;;0.60;;
146;SDS011;45999;48.808;9.182;2023-11-19T14:02:26;1.37;;;0.70;;
146;SDS011;45999;48.808;9.182;2023-11-19T14:04:52;0.73;;;0.70;;
146;SDS011;45999;48.808;9.182;2023-11-19T14:07:18;2.10;;;0.70;;
146;SDS011;45999;48.808;9.182;2023-11-19T14:09:45;0.90;;;0.60;;
146;SDS011;45999;48.808;9.182;2023-11-19T14:12:11;2.43;;;0.87;;
146;SDS011;45999;48.808;9.182;2023-11-19T14:14:38;1.60;;;0.73;;
146;SDS011;45999;48.808;9.182;2023-11-19T14:17:05;1.67;;;0.70;;
146;SDS011;45999;48.808;9.182;2023-11-19T14:19:32;1.00;;;0.57;;
146;SDS011;45999;48.808;9.182;2023-11-19T14:21:59;0.77;;;0.60;;
146;SDS011;45999;48.808;9.182;2023-11-19T14:24:25;2.47;;;0.60;;
146;SDS011;45999;48.808;9.182;2023-11-19T14:26:52;2.93;;;0.80;;
146;SDS011;45999;48.808;9.182;2023-11-19T14:29:18;1.33;;;0.60;;
146;SDS011;45999;48.808;9.182;2023-11-19T14:31:44;2.43;;;0.80;;
146;SDS011;45999;48.808;9.182;2023-11-19T14:34:11;0.80;;;0.70;;
146;SDS011;45999;48.808;9.182;2023-11-19T14:36:37;0.87;;;0.60;;
146;SDS011;45999;48.808;9.182;2023-11-19T14:39:04;0.77;;;0.70;;
146;SDS011;45999;48.808;9.182;2023-11-19T14:41:32;1.07;;;0.67;;
146;SDS011;45999;48.808;9.182;2023-11-19T14:43:58;1.07;;;0.70;;
146;SDS011;45999;48.808;9.182;2023-11-19T14:46:26;2.53;;;0.53;;
146;SDS011;45999;48.808;9.182;2023-11-19T14:48:52;1.80;;;0.70;;
146;SDS011;45999;48.808;9.182;2023-11-19T14:51:19;1.40;;;0.60;;
146;SDS011;45999;48.808;9.182;2023-11-19T14:53:45;1.40;;;0.70;;
146;SDS011;45999;48.808;9.182;2023-11-19T14:56:12;0.87;;;0.70;;
146;SDS011;45999;48.808;9.182;2023-11-19T14:58:39;0.70;;;0.70;;
146;SDS011;45999;48.808;9.182;2023-11-19T15:01:06;0.97;;;0.60;;
146;SDS011;45999;48.808;9.182;2023-11-19T15:03:33;0.87;;;0.60;;
146;SDS011;45999;48.808;9.182;2023-11-19T15:05:59;2.27;;;0.67;;
146;SDS011;45999;48.808;9.182;2023-11-19T15:08:25;0.53;;;0.53;;
146;SDS011;45999;48.808;9.182;2023-11-19T15:10:52;1.80;;;0.70;;
146;SDS011;45999;48.808;9.182;2023-11-19T15:13:18;1.03;;;0.70;;
146;SDS011;45999;48.808;9.182;2023-11-19T15:15:45;3.57;;;0.53;;
146;SDS011;45999;48.808;9.182;2023-11-19T15:18:11;1.97;;;0.53;;
146;SDS011;45999;48.808;9.182;2023-11-19T15:20:39;0.50;;;0.50;;
146;SDS011;45999;48.808;9.182;2023-11-19T15:23:05;1.00;;;0.70;;
146;SDS011;45999;48.808;9.182;2023-11-19T15:25:34;1.20;;;0.60;;
146;SDS011;45999;48.808;9.182;2023-11-19T15:28:01;0.73;;;0.60;;
146;SDS011;45999;48.808;9.182;2023-11-19T15:30:28;1.17;;;0.70;;
146;SDS011;45999;48.808;9.182;2023-11-19T15:32:54;1.57;;;0.80;;
146;SDS011;45999;48.808;9.182;2023-11-19T15:35:21;0.83;;;0.70;;
146;SDS011;45999;48.808;9.182;2023-11-19T15:37:47;1.13;;;0.60;;
146;SDS011;45999;48.808;9.182;2023-11-19T15:40:14;1.83;;;0.70;;